x

Corpus Christi, Tx - 60nm Sse Of Corpus Christi, Tx (42020) Wave Buoy

12:50am - Sat 24th Jun 2017 All times are CDT. -5 hours from GMT.

  • Sig Wave height 5.6ft
  • Swell Direction
  • Peak Period 8s
  • Average Period 5s
  • Wind
    20mph, 22mph gusts
  • Air Temp 84°f
  • Sea Pressure 1011.3mb
  • Corpus Christi, Tx - 60nm Sse Of Corpus Christi, Tx
  • Corpus Christi, Tx - 60nm Sse Of Corpus Christi, Tx

More Historic Weather Station data

Upgrade to MSW Pro to gain access to the past 30 days of data for over 8000 Wavebouys and Weather Stations around the globe.

Join Pro

Comparision Forecast

View Surf forecast
   
Sat 06/24 12:50am 5.5ft 8s 5s 20 22 mph 1011.3mb 84f
Fri 06/23 11:50pm 5.5ft 7s 5s 18 20 mph 1010.8mb 85f
10:50pm 6ft 8s 5s 20 22 mph 1009.9mb 85f
9:50pm 6ft 8s 6s 20 22 mph 1009.1mb 85f
8:50pm 5.5ft 8s 5s 18 22 mph 1008mb 84f
7:50pm 6ft 8s 6s 16 20 mph 1007.9mb 85f
6:50pm 6ft 8s 6s 18 20 mph 1007.7mb 85f
4:50pm 6ft 7s 6s 16 18 mph 1008.1mb 85f
3:50pm 6.5ft 8s 6s 16 20 mph 1008.2mb 85f
2:50pm 6.5ft 7s 6s 18 22 mph 1008.5mb 85f
1:50pm 7ft 7s 6s 18 22 mph 1008.7mb 85f
12:50pm 6ft 8s 6s 20 22 mph 1008.7mb 84f
11:50am 6ft 8s 6s 20 25 mph 1008.3mb 84f
10:50am 7ft 7s 6s 20 22 mph 1008.1mb 84f
9:50am 7ft 7s 6s 18 22 mph 1007.8mb 84f
8:50am 6.5ft 7s 5s 20 22 mph 1007.7mb 84f
7:50am 7ft 7s 6s 20 25 mph 1007.2mb 84f
6:50am 7ft 7s 5s 22 29 mph 1006.6mb 84f
5:50am 7ft 7s 5s 25 29 mph 1006mb 84f
4:50am 8ft 7s 5s 27 31 mph 1005.6mb 84f
3:50am 8.5ft 7s 6s 27 31 mph 1005.5mb 84f
2:50am 7ft 7s 5s 29 34 mph 1005.6mb 84f
1:50am 7.5ft 7s 5s 27 31 mph 1006mb 84f
12:50am 7ft 7s 5s 25 29 mph 1005.6mb 84f
Thu 06/22 11:50pm 7ft 7s 5s 25 31 mph 1005.2mb 84f
10:50pm 7ft 7s 5s 25 31 mph 1004.7mb 84f
9:50pm 7ft 6s 5s 25 29 mph 1004.4mb 84f
8:50pm 7ft 7s 5s 25 31 mph 1004mb 84f
7:50pm 6ft 6s 5s 27 34 mph 1003.6mb 84f
6:50pm 6ft 6s 5s 25 29 mph 1003.8mb 85f
5:50pm 6ft 8s 5s 25 29 mph 1004mb 85f
4:50pm 5ft 6s 5s 25 29 mph 1004.3mb 85f
3:50pm 5ft 6s 5s 25 29 mph 1004.7mb 85f
2:50pm 4.5ft 9s 5s 20 25 mph 1005.4mb 85f
1:50pm 4.5ft 8s 5s 18 20 mph 1005.8mb 84f
12:50pm 3.5ft 9s 5s 16 18 mph 1006.1mb 84f
11:50am 4ft 9s 6s 16 18 mph 1006.1mb 84f
10:50am 4ft 9s 6s 16 18 mph 1006.1mb 85f
9:50am 4.5ft 9s 6s 11 13 mph 1005.9mb 84f
8:50am 5ft 9s 5s 13 16 mph 1005.5mb 84f
7:50am 5ft 10s 5s 16 18 mph 1005.1mb 84f
6:50am 5ft 8s 5s 16 20 mph 1004.7mb 83f
5:50am 4.5ft 8s 5s 20 25 mph 1004.2mb 83f
4:50am 5ft 9s 6s 22 27 mph 1003.8mb 84f
3:50am 5.5ft 8s 6s 13 18 mph 1003.7mb 85f
2:50am 5ft 10s 6s 16 18 mph 1004mb 84f
1:50am 6ft 8s 7s 9 11 mph 1004.3mb 84f
12:50am 5.5ft 10s 6s 4 7 mph 1004.5mb 84f
Wed 06/21 11:50pm 5.5ft 11s 6s 7 9 mph 1004.6mb 85f
10:50pm 6ft 10s 6s 4 4 mph 1004.1mb 85f
9:50pm 6.5ft 10s 7s 4 7 mph 1003.3mb 85f
8:50pm 8ft 10s 7s 4 7 mph 1003mb 85f
7:50pm 8ft 10s 7s 9 11 mph 1002.8mb 86f
6:50pm 8ft 10s 7s 4 7 mph 1002.2mb 87f
5:50pm 8ft 10s 7s 9 13 mph 1002.1mb 87f
4:50pm 8.5ft 10s 7s 13 16 mph 1002.5mb 86f
3:50pm 9ft 10s 7s 13 16 mph 1003.8mb 85f
2:50pm 8.5ft 10s 7s 16 20 mph 1004.8mb 85f
1:50pm 10ft 10s 7s 20 22 mph 1005.5mb 84f
12:50pm 9ft 10s 7s 20 25 mph 1006.3mb 83f
11:50am 8ft 10s 7s 20 25 mph 1006.7mb 83f
10:50am 8.5ft 10s 7s 20 22 mph 1006.8mb 83f
9:50am 8.5ft 10s 7s 20 25 mph 1007mb 83f
8:50am 7.5ft 11s 7s 20 22 mph 1007.1mb 83f
7:50am 7.5ft 10s 6s 20 22 mph 1006.8mb 83f
6:50am 8ft 10s 7s 20 25 mph 1006.5mb 83f
5:50am 7.5ft 10s 7s 18 22 mph 1006.5mb 83f
4:50am 8ft 10s 7s 18 22 mph 1006.7mb 83f
3:50am 8ft 10s 7s 18 22 mph 1007.4mb 84f
2:50am 7.5ft 10s 7s 18 20 mph 1007.6mb 84f
1:50am 8ft 11s 7s 13 16 mph 1008.2mb 84f
12:50am 8.5ft 10s 7s 13 16 mph 1008.6mb 84f
Tue 06/20 11:50pm 8ft 10s 7s 16 18 mph 1009.1mb 84f
10:50pm 7.5ft 11s 7s 16 18 mph 1008.8mb 84f
9:50pm 7ft 9s 7s 16 20 mph 1008.6mb 84f
8:50pm 7.5ft 11s 7s 18 20 mph 1008.4mb 84f
7:50pm 6.5ft 10s 7s 16 20 mph 1008.2mb 84f
6:50pm 5.5ft 9s 6s 16 20 mph 1008.2mb 84f
5:50pm 5ft 8s 6s 13 16 mph 1008.3mb 85f
4:50pm 5ft 8s 6s 13 16 mph 1008.9mb 85f
3:50pm 4.5ft 7s  -  16 18 mph 1009.2mb 85f
2:50pm 4.5ft 7s 5s 18 20 mph 1010.1mb 84f
1:50pm 4ft 7s 5s 18 20 mph 1010.9mb 83f
12:50pm 3.5ft 8s 5s 18 20 mph 1011.6mb 83f
11:50am 3.5ft 7s 5s 18 22 mph 1011.9mb 83f
10:50am 3ft 6s 4s 18 20 mph 1011.8mb 83f
9:50am 3ft 6s 5s 16 18 mph 1011.9mb 83f
8:50am 2.5ft 6s 5s 13 16 mph 1011.5mb 83f
7:50am 2.5ft 6s 5s 13 13 mph 1010.7mb 83f